Time;durP1;ratioP1;P1;durP2;ratioP2;P2;SDS_P1;SDS_P2;PMS_P1;PMS_P2;Temp;Humidity;BMP_temperature;BMP_pressure;BME280_temperature;BME280_humidity;BME280_pressure;Samples;Min_cycle;Max_cycle;Signal;HPM_P1;HPM_P2
2023/12/11 00:02:10;;;;;;;23.50;7.80;;;;;;;6.28;100.00;99077.14;179787;1252;46183;-86
2023/12/11 00:06:13;;;;;;;14.30;7.80;;;;;;;6.25;100.00;99062.27;179800;1254;46114;-88
2023/12/11 00:10:21;;;;;;;12.60;5.80;;;;;;;6.25;100.00;99066.82;179641;1254;57922;-87
2023/12/11 00:14:24;;;;;;;14.30;5.70;;;;;;;6.24;100.00;99066.94;179607;1254;44518;-89
2023/12/11 00:18:27;;;;;;;7.90;5.10;;;;;;;6.23;100.00;99065.45;179207;1254;45962;-87
2023/12/11 00:22:31;;;;;;;8.50;4.90;;;;;;;6.26;100.00;99052.27;179990;1253;44250;-88
2023/12/11 00:26:34;;;;;;;10.70;5.90;;;;;;;6.29;100.00;99039.36;178754;1254;46167;-87
2023/12/11 00:30:38;;;;;;;13.30;6.20;;;;;;;6.32;100.00;99035.13;179360;1254;59568;-88
2023/12/11 00:34:41;;;;;;;13.30;5.40;;;;;;;6.34;100.00;99036.17;179344;1253;45959;-88
2023/12/11 00:38:45;;;;;;;10.10;4.90;;;;;;;6.36;100.00;99032.42;179414;1254;45118;-87
2023/12/11 00:42:48;;;;;;;10.60;5.20;;;;;;;6.38;100.00;98997.63;179199;1254;46348;-83
2023/12/11 00:46:51;;;;;;;16.90;6.30;;;;;;;6.36;100.00;98981.72;178558;1254;46077;-87
2023/12/11 00:50:55;;;;;;;9.60;5.60;;;;;;;6.39;100.00;98956.43;179226;1256;58390;-86
2023/12/11 00:54:59;;;;;;;18.70;10.20;;;;;;;6.47;100.00;98928.17;179417;1253;45991;-86
2023/12/11 00:59:02;;;;;;;14.70;8.40;;;;;;;6.50;100.00;98942.19;179084;1254;44349;-87
2023/12/11 01:03:06;;;;;;;11.80;7.40;;;;;;;6.50;100.00;98948.34;178949;1257;45972;-86
2023/12/11 01:07:09;;;;;;;16.30;9.80;;;;;;;6.46;100.00;98965.60;179070;1253;45972;-89
2023/12/11 01:11:13;;;;;;;8.60;5.30;;;;;;;6.34;100.00;98997.94;179238;1254;60157;-87
2023/12/11 01:15:16;;;;;;;15.60;6.20;;;;;;;6.22;100.00;99024.09;179234;1253;46101;-89
2023/12/11 01:19:19;;;;;;;21.00;8.80;;;;;;;6.09;100.00;99003.89;178891;1257;46019;-88
2023/12/11 01:23:23;;;;;;;15.90;5.50;;;;;;;6.03;100.00;98999.29;180193;1256;45946;-87
2023/12/11 01:27:26;;;;;;;7.20;4.50;;;;;;;6.00;100.00;98987.54;179390;1254;46249;-87
2023/12/11 01:31:30;;;;;;;18.00;6.10;;;;;;;6.03;100.00;98973.92;179252;1253;60489;-86
2023/12/11 01:35:37;;;;;;;8.60;5.50;;;;;;;6.06;100.00;98971.89;179303;1254;44480;-86
2023/12/11 01:39:40;;;;;;;14.70;6.00;;;;;;;6.05;100.00;98946.35;179813;1253;44800;-86
2023/12/11 01:43:53;;;;;;;15.80;6.80;;;;;;;6.03;100.00;98927.46;179600;1252;46028;-88
2023/12/11 01:47:57;;;;;;;8.90;4.40;;;;;;;6.07;100.00;98900.76;178817;1253;46068;-88
2023/12/11 01:52:00;;;;;;;14.00;7.20;;;;;;;6.12;100.00;98886.45;178792;1252;58253;-87
2023/12/11 01:56:04;;;;;;;12.50;6.40;;;;;;;6.16;100.00;98890.83;179915;1254;46026;-86
2023/12/11 02:00:08;;;;;;;7.70;3.60;;;;;;;6.19;100.00;98899.39;180207;1253;46084;-88
2023/12/11 02:04:11;;;;;;;6.60;3.90;;;;;;;6.25;100.00;98893.89;178301;1255;46250;-85
2023/12/11 02:08:15;;;;;;;7.80;3.50;;;;;;;6.29;100.00;98886.70;180374;1252;44235;-85
2023/12/11 02:12:19;;;;;;;7.30;3.50;;;;;;;6.33;100.00;98883.77;179399;1252;58094;-87
2023/12/11 02:16:22;;;;;;;6.50;3.40;;;;;;;6.37;100.00;98874.40;179291;1254;45978;-85
2023/12/11 02:20:25;;;;;;;9.60;2.70;;;;;;;6.39;100.00;98859.30;179999;1252;45984;-88
2023/12/11 02:24:33;;;;;;;4.30;2.50;;;;;;;6.40;100.00;98844.05;179997;1253;45256;-89
2023/12/11 02:28:37;;;;;;;3.80;2.20;;;;;;;6.44;100.00;98839.64;180153;1253;46098;-88
2023/12/11 02:32:40;;;;;;;8.00;3.30;;;;;;;6.43;100.00;98832.17;180717;1252;59674;-88
2023/12/11 02:36:43;;;;;;;6.40;3.70;;;;;;;6.47;100.00;98820.75;180598;1252;45998;-87
2023/12/11 02:40:47;;;;;;;6.80;3.50;;;;;;;6.46;100.00;98812.89;179538;1252;46116;-87
2023/12/11 02:44:50;;;;;;;6.70;3.60;;;;;;;6.40;100.00;98804.95;179741;1252;45993;-88
2023/12/11 02:48:54;;;;;;;10.50;2.90;;;;;;;6.42;100.00;98796.11;180105;1252;48487;-86
2023/12/11 02:53:02;;;;;;;3.70;2.20;;;;;;;6.41;100.00;98786.86;180157;1252;59418;-89
2023/12/11 02:57:05;;;;;;;7.40;2.20;;;;;;;6.41;100.00;98781.47;179447;1253;46122;-86
2023/12/11 03:01:09;;;;;;;4.20;2.30;;;;;;;6.44;100.00;98774.52;179760;1253;46137;-86
2023/12/11 03:05:12;;;;;;;2.60;1.80;;;;;;;6.46;100.00;98764.31;179318;1254;45910;-86
2023/12/11 03:09:18;;;;;;;2.90;2.30;;;;;;;6.50;100.00;98762.91;179421;1255;46117;-84
2023/12/11 03:13:21;;;;;;;3.10;2.80;;;;;;;6.51;100.00;98755.73;179311;1253;59981;-86
2023/12/11 03:17:24;;;;;;;2.20;1.70;;;;;;;6.56;100.00;98757.21;179929;1252;46209;-88
2023/12/11 03:21:27;;;;;;;2.70;2.10;;;;;;;6.59;100.00;98755.56;179605;1254;46200;-86
2023/12/11 03:25:31;;;;;;;3.30;1.30;;;;;;;6.62;100.00;98754.11;179947;1252;45995;-87
2023/12/11 03:29:34;;;;;;;1.50;1.40;;;;;;;6.60;100.00;98749.70;179585;1254;44808;-89
2023/12/11 03:33:37;;;;;;;5.60;1.40;;;;;;;6.58;100.00;98745.45;179712;1253;58253;-86
2023/12/11 03:37:41;;;;;;;2.10;1.80;;;;;;;6.58;100.00;98741.09;178821;1254;46190;-88
2023/12/11 03:41:45;;;;;;;4.00;1.40;;;;;;;6.58;100.00;98737.52;179872;1253;52185;-89
2023/12/11 03:45:48;;;;;;;5.50;2.20;;;;;;;6.60;100.00;98733.30;179439;1256;45890;-89
2023/12/11 03:49:51;;;;;;;2.60;1.30;;;;;;;6.61;100.00;98724.04;179413;1256;45982;-89
2023/12/11 03:53:56;;;;;;;2.20;1.30;;;;;;;6.52;100.00;98718.10;179628;1253;58221;-89
2023/12/11 03:57:59;;;;;;;2.40;1.20;;;;;;;6.45;100.00;98711.52;179017;1256;46088;-85
2023/12/11 04:02:03;;;;;;;1.80;1.10;;;;;;;6.44;100.00;98709.13;178977;1253;46097;-85
2023/12/11 04:06:07;;;;;;;2.40;0.90;;;;;;;6.42;100.00;98708.66;178617;1253;46128;-87
2023/12/11 04:10:10;;;;;;;5.80;1.20;;;;;;;6.41;100.00;98707.31;179539;1252;44272;-89
2023/12/11 04:14:14;;;;;;;2.20;1.90;;;;;;;6.43;100.00;98702.44;179914;1252;60500;-89
2023/12/11 04:18:17;;;;;;;1.40;1.20;;;;;;;6.46;100.00;98693.73;179548;1252;45998;-87
2023/12/11 04:22:21;;;;;;;1.00;0.70;;;;;;;6.47;100.00;98694.86;179764;1253;45383;-87
2023/12/11 04:26:24;;;;;;;3.00;1.10;;;;;;;6.49;100.00;98693.28;179163;1252;46256;-89
2023/12/11 04:30:28;;;;;;;2.40;1.10;;;;;;;6.49;100.00;98691.67;179279;1253;46068;-88
2023/12/11 04:34:31;;;;;;;1.90;1.20;;;;;;;6.45;100.00;98681.27;179597;1253;59775;-90
2023/12/11 04:38:35;;;;;;;4.20;2.10;;;;;;;6.40;100.00;98686.24;179014;1252;46119;-87
2023/12/11 04:42:38;;;;;;;0.90;0.80;;;;;;;6.38;100.00;98684.13;179381;1252;45254;-85
2023/12/11 04:46:42;;;;;;;3.40;1.50;;;;;;;6.36;100.00;98683.79;179135;1253;46401;-89
2023/12/11 04:50:45;;;;;;;2.90;1.20;;;;;;;6.31;100.00;98678.10;179173;1252;46114;-89
2023/12/11 04:54:48;;;;;;;3.70;1.50;;;;;;;6.31;100.00;98683.55;179420;1252;59547;-86
2023/12/11 04:58:52;;;;;;;1.50;1.00;;;;;;;6.32;100.00;98682.12;179087;1254;45959;-86
2023/12/11 05:02:55;;;;;;;1.60;1.20;;;;;;;6.33;100.00;98676.03;179470;1254;44821;-87
2023/12/11 05:06:58;;;;;;;1.60;0.70;;;;;;;6.35;100.00;98677.40;179111;1253;45100;-86
2023/12/11 05:11:02;;;;;;;2.30;1.10;;;;;;;6.38;100.00;98684.18;178903;1253;44157;-85
2023/12/11 05:15:06;;;;;;;2.40;1.10;;;;;;;6.40;100.00;98686.50;178320;1252;58865;-85
2023/12/11 05:19:10;;;;;;;2.40;1.30;;;;;;;6.39;100.00;98686.48;178695;1254;46612;-87
2023/12/11 05:23:13;;;;;;;1.50;0.60;;;;;;;6.41;100.00;98690.05;178269;1254;46420;-86
2023/12/11 05:27:17;;;;;;;2.30;1.70;;;;;;;6.42;100.00;98683.42;178588;1254;46023;-85
2023/12/11 05:31:23;;;;;;;5.00;1.80;;;;;;;6.45;100.00;98682.12;178795;1252;46114;-84
2023/12/11 05:35:27;;;;;;;3.30;1.90;;;;;;;6.51;100.00;98677.54;178957;1255;58325;-85
2023/12/11 05:39:30;;;;;;;4.60;1.60;;;;;;;6.59;100.00;98672.55;178102;1253;45665;-86
2023/12/11 05:43:34;;;;;;;5.30;2.40;;;;;;;6.61;100.00;98683.14;179937;1252;44283;-86
2023/12/11 05:47:37;;;;;;;1.40;1.30;;;;;;;6.57;100.00;98681.20;179282;1252;44712;-85
2023/12/11 05:51:40;;;;;;;2.40;1.30;;;;;;;6.55;100.00;98688.30;178772;1255;46562;-85
2023/12/11 05:55:44;;;;;;;2.90;2.00;;;;;;;6.53;100.00;98685.45;178646;1252;58411;-86
2023/12/11 05:59:47;;;;;;;4.80;1.70;;;;;;;6.53;100.00;98693.06;178746;1252;46096;-85
2023/12/11 06:03:50;;;;;;;2.60;2.20;;;;;;;6.54;100.00;98692.73;178373;1252;46007;-84
2023/12/11 06:07:54;;;;;;;4.90;2.10;;;;;;;6.52;100.00;98691.73;178604;1254;46241;-86
2023/12/11 06:11:57;;;;;;;5.10;2.20;;;;;;;6.51;100.00;98693.23;178751;1252;45496;-87
2023/12/11 06:16:00;;;;;;;2.30;1.50;;;;;;;6.44;100.00;98691.02;178495;1254;59329;-85
2023/12/11 06:20:04;;;;;;;4.00;2.00;;;;;;;6.43;100.00;98697.14;180819;1252;44676;-84
2023/12/11 06:24:07;;;;;;;2.60;1.70;;;;;;;6.41;100.00;98700.59;180737;1252;44570;-87
2023/12/11 06:28:10;;;;;;;2.70;1.60;;;;;;;6.39;100.00;98698.55;178120;1253;45998;-86
2023/12/11 06:32:14;;;;;;;4.50;2.50;;;;;;;6.34;100.00;98698.23;178020;1254;45989;-86
2023/12/11 06:36:17;;;;;;;3.10;1.90;;;;;;;6.36;100.00;98699.98;177628;1252;60302;-86
2023/12/11 06:40:20;;;;;;;3.20;2.20;;;;;;;6.36;100.00;98707.09;178416;1255;46092;-87
2023/12/11 06:44:23;;;;;;;9.40;2.70;;;;;;;6.32;100.00;98709.06;178505;1252;44191;-85
2023/12/11 06:48:26;;;;;;;4.70;2.20;;;;;;;6.30;100.00;98716.56;178652;1252;45980;-86
2023/12/11 06:52:30;;;;;;;6.50;2.10;;;;;;;6.34;100.00;98726.10;178614;1252;45976;-86
2023/12/11 06:56:34;;;;;;;4.50;2.90;;;;;;;6.36;100.00;98724.46;178318;1252;60124;-86
2023/12/11 07:00:37;;;;;;;3.90;2.10;;;;;;;6.43;100.00;98723.02;179015;1256;48691;-87
2023/12/11 07:04:41;;;;;;;2.30;2.10;;;;;;;6.51;100.00;98723.40;178270;1253;45917;-86
2023/12/11 07:08:45;;;;;;;3.90;2.80;;;;;;;6.55;100.00;98733.38;178395;1253;46222;-86
2023/12/11 07:12:49;;;;;;;2.80;1.90;;;;;;;6.63;100.00;98735.89;178326;1254;46285;-87
2023/12/11 07:16:52;;;;;;;5.40;2.50;;;;;;;6.70;100.00;98740.48;178466;1252;60122;-86
2023/12/11 07:20:56;;;;;;;4.40;2.40;;;;;;;6.78;100.00;98740.30;178179;1253;45930;-85
2023/12/11 07:24:59;;;;;;;4.50;2.70;;;;;;;6.88;100.00;98739.08;178565;1252;46108;-86
2023/12/11 07:29:04;;;;;;;4.50;1.90;;;;;;;6.95;100.00;98739.47;178476;1252;46045;-86
2023/12/11 07:33:08;;;;;;;8.10;3.60;;;;;;;7.03;100.00;98735.36;178626;1252;45945;-86
2023/12/11 07:37:11;;;;;;;4.40;2.30;;;;;;;7.17;100.00;98739.97;178694;1252;59267;-85
2023/12/11 07:41:22;;;;;;;4.30;2.80;;;;;;;7.26;100.00;98746.33;178827;1253;46353;-86
2023/12/11 07:45:26;;;;;;;5.00;1.80;;;;;;;7.35;100.00;98755.44;178927;1253;46024;-86
2023/12/11 07:49:29;;;;;;;4.50;2.70;;;;;;;7.41;100.00;98756.84;178509;1253;45955;-85
2023/12/11 07:53:34;;;;;;;5.60;3.40;;;;;;;7.44;100.00;98756.16;179093;1252;45148;-85
2023/12/11 07:57:39;;;;;;;9.10;3.30;;;;;;;7.48;100.00;98749.61;179249;1253;59541;-87
2023/12/11 08:01:43;;;;;;;8.40;3.60;;;;;;;7.51;100.00;98751.77;178573;1253;46143;-86
2023/12/11 08:05:46;;;;;;;4.00;2.20;;;;;;;7.55;100.00;98752.95;178653;1256;46563;-85
2023/12/11 08:09:50;;;;;;;7.80;2.90;;;;;;;7.58;100.00;98754.64;178416;1253;46077;-85
2023/12/11 08:13:53;;;;;;;8.40;3.40;;;;;;;7.62;100.00;98755.72;178576;1254;46106;-85
2023/12/11 08:17:57;;;;;;;5.20;3.10;;;;;;;7.64;100.00;98757.11;178827;1252;58225;-86
2023/12/11 08:22:00;;;;;;;4.20;3.10;;;;;;;7.63;100.00;98755.96;178492;1252;46032;-86
2023/12/11 08:26:04;;;;;;;8.30;3.60;;;;;;;7.64;100.00;98753.09;178931;1254;44194;-86
2023/12/11 08:30:08;;;;;;;6.80;3.10;;;;;;;7.64;100.00;98755.55;179499;1253;46095;-86
2023/12/11 08:34:12;;;;;;;6.20;3.50;;;;;;;7.62;100.00;98758.37;178370;1257;46133;-86
2023/12/11 08:38:16;;;;;;;7.30;3.80;;;;;;;7.63;100.00;98765.91;178576;1255;58325;-84
2023/12/11 08:42:19;;;;;;;4.30;3.40;;;;;;;7.68;100.00;98771.80;178992;1254;46102;-87
2023/12/11 08:46:22;;;;;;;8.40;3.30;;;;;;;7.70;100.00;98775.25;178959;1252;44435;-86
2023/12/11 08:50:26;;;;;;;6.70;2.60;;;;;;;7.77;100.00;98771.47;178175;1252;46114;-85
2023/12/11 08:54:29;;;;;;;4.40;2.70;;;;;;;7.89;100.00;98773.51;178422;1252;45855;-86
2023/12/11 08:58:33;;;;;;;3.80;2.50;;;;;;;8.01;100.00;98780.35;178595;1253;291256;-87
2023/12/11 09:02:36;;;;;;;8.60;2.30;;;;;;;8.08;100.00;98784.60;178925;1253;46001;-86
2023/12/11 09:06:40;;;;;;;4.10;2.90;;;;;;;8.20;100.00;98786.14;178364;1253;46116;-87
2023/12/11 09:10:43;;;;;;;2.70;2.50;;;;;;;8.37;100.00;98783.61;178740;1252;45984;-86
2023/12/11 09:14:47;;;;;;;3.70;2.80;;;;;;;8.57;100.00;98784.19;179576;1252;46023;-85
2023/12/11 09:18:50;;;;;;;4.40;3.20;;;;;;;8.79;100.00;98780.30;178215;1256;58320;-87
2023/12/11 09:22:53;;;;;;;4.00;3.10;;;;;;;9.09;100.00;98777.91;178355;1255;46052;-86
2023/12/11 09:26:57;;;;;;;7.00;3.70;;;;;;;9.29;99.38;98774.47;178588;1252;46112;-86
2023/12/11 09:31:00;;;;;;;6.70;3.00;;;;;;;9.45;97.99;98773.27;178911;1253;51655;-87
2023/12/11 09:35:04;;;;;;;5.00;2.90;;;;;;;9.58;97.46;98770.86;178902;1252;45930;-87
2023/12/11 09:39:08;;;;;;;7.10;2.60;;;;;;;9.70;96.66;98769.16;178655;1253;58217;-88
2023/12/11 09:43:12;;;;;;;3.80;2.60;;;;;;;9.78;95.82;98762.49;178863;1256;46045;-87
2023/12/11 09:47:31;;;;;;;5.70;2.80;;;;;;;9.88;95.57;98751.23;178740;1252;46080;-87
2023/12/11 09:51:36;;;;;;;5.90;2.10;;;;;;;9.99;96.01;98738.79;179705;1254;46141;-87
2023/12/11 09:55:39;;;;;;;4.80;2.30;;;;;;;10.13;96.16;98740.30;178876;1257;46197;-87
2023/12/11 09:59:43;;;;;;;9.20;3.10;;;;;;;10.26;96.56;98736.84;178876;1253;60564;-85
2023/12/11 10:03:46;;;;;;;7.10;5.30;;;;;;;10.39;97.32;98731.44;179151;1252;45991;-86
2023/12/11 10:07:50;;;;;;;4.20;3.40;;;;;;;10.52;95.81;98725.34;179938;1253;45917;-83
2023/12/11 10:12:02;;;;;;;4.70;2.70;;;;;;;10.65;94.22;98716.65;181246;1252;43461;-84
2023/12/11 10:16:33;;;;;;;5.30;2.00;;;;;;;10.85;93.33;98710.27;179712;1253;45859;-87
2023/12/11 10:20:38;;;;;;;8.70;4.20;;;;;;;11.03;92.39;98697.46;178947;1254;58682;-88
2023/12/11 10:24:42;;;;;;;4.20;2.50;;;;;;;11.12;91.81;98696.52;179077;1252;46039;-85
2023/12/11 10:28:46;;;;;;;4.50;2.90;;;;;;;11.19;91.43;98692.98;178618;1254;46212;-87
2023/12/11 10:32:49;;;;;;;4.80;1.90;;;;;;;11.23;90.51;98678.48;178673;1253;44927;-87
2023/12/11 10:36:52;;;;;;;6.20;2.40;;;;;;;11.28;91.06;98669.54;178620;1255;45899;-86
2023/12/11 10:40:57;;;;;;;3.60;2.20;;;;;;;11.32;90.92;98667.04;178504;1252;59261;-87
2023/12/11 10:45:01;;;;;;;4.50;3.00;;;;;;;11.25;90.66;98654.85;179508;1252;45828;-88
2023/12/11 10:49:04;;;;;;;3.40;1.70;;;;;;;11.12;90.91;98645.58;178853;1252;46028;-87
2023/12/11 10:53:08;;;;;;;5.70;2.30;;;;;;;10.99;91.44;98644.55;178372;1252;46118;-87
2023/12/11 10:57:14;;;;;;;5.00;2.90;;;;;;;10.94;93.03;98644.52;178550;1252;44960;-87
2023/12/11 11:01:19;;;;;;;4.40;2.70;;;;;;;11.00;93.60;98641.14;178731;1253;60677;-87
2023/12/11 11:05:23;;;;;;;6.70;2.90;;;;;;;11.11;93.64;98639.66;178942;1252;46891;-87
2023/12/11 11:09:39;;;;;;;6.00;2.20;;;;;;;11.17;92.86;98634.46;178363;1257;44235;-87
2023/12/11 11:14:20;;;;;;;3.10;2.10;;;;;;;11.16;92.98;98632.05;178559;1253;45966;-88
2023/12/11 11:18:23;;;;;;;3.20;2.30;;;;;;;11.13;92.88;98628.80;177767;1260;45915;-84
2023/12/11 11:22:27;;;;;;;5.40;2.80;;;;;;;11.14;92.90;98628.19;178434;1259;59105;-82
2023/12/11 11:26:42;;;;;;;12.40;3.00;;;;;;;11.15;92.45;98629.52;178542;1260;46072;-84
2023/12/11 11:30:50;;;;;;;7.60;2.50;;;;;;;11.21;92.50;98633.60;178199;1261;46135;-84
2023/12/11 11:34:54;;;;;;;3.90;2.90;;;;;;;11.26;92.48;98631.42;178051;1260;46417;-84
2023/12/11 11:39:00;;;;;;;3.40;2.80;;;;;;;11.32;92.58;98628.73;177770;1261;46012;-85
2023/12/11 11:43:04;;;;;;;;;;;;;;;11.42;92.98;98629.54;178017;1261;60221;-84
2023/12/11 11:47:07;;;;;;;3.90;1.80;;;;;;;11.48;92.22;98628.21;178370;1261;45928;-84
2023/12/11 11:51:10;;;;;;;6.10;2.40;;;;;;;11.47;91.22;98623.16;178046;1259;46469;-85
2023/12/11 11:55:26;;;;;;;5.80;2.20;;;;;;;11.42;91.77;98625.45;178718;1256;46100;-84
2023/12/11 11:59:30;;;;;;;3.60;2.10;;;;;;;11.39;91.09;98624.75;179005;1254;44833;-84
2023/12/11 12:03:41;;;;;;;3.30;2.10;;;;;;;11.40;90.55;98621.30;179151;1255;59317;-85
2023/12/11 12:07:44;;;;;;;4.40;2.30;;;;;;;11.39;90.09;98617.50;178787;1254;44151;-83
2023/12/11 12:11:48;;;;;;;4.70;2.50;;;;;;;11.34;89.86;98613.64;179146;1256;45890;-84
2023/12/11 12:15:52;;;;;;;4.00;2.20;;;;;;;11.31;90.11;98615.73;179963;1253;45991;-84
2023/12/11 12:19:56;;;;;;;4.30;2.50;;;;;;;11.30;92.06;98612.61;179262;1252;46106;-84
2023/12/11 12:24:06;;;;;;;7.80;2.20;;;;;;;11.33;92.92;98606.05;179737;1254;58011;-85
2023/12/11 12:28:12;;;;;;;3.30;2.50;;;;;;;11.34;91.57;98595.13;178988;1256;44759;-84
2023/12/11 12:32:16;;;;;;;3.10;1.80;;;;;;;11.36;89.84;98594.05;178881;1253;46049;-85
2023/12/11 12:36:19;;;;;;;4.40;3.10;;;;;;;11.30;90.09;98599.30;179029;1255;46120;-84
2023/12/11 12:40:23;;;;;;;4.70;2.80;;;;;;;11.20;90.87;98597.50;179284;1256;46141;-83
2023/12/11 12:44:26;;;;;;;4.70;3.10;;;;;;;11.07;91.01;98596.45;178808;1254;58852;-84
2023/12/11 12:48:30;;;;;;;3.00;2.10;;;;;;;10.90;90.92;98601.84;179303;1253;46117;-84
2023/12/11 12:52:36;;;;;;;5.60;3.20;;;;;;;10.78;92.79;98601.42;178969;1253;44471;-85
2023/12/11 12:56:40;;;;;;;;;;;;;;;10.64;93.79;98602.90;179087;1253;45917;-85
2023/12/11 13:00:44;;;;;;;11.90;4.00;;;;;;;10.50;93.73;98615.41;178611;1256;45705;-84
2023/12/11 13:04:53;;;;;;;5.70;3.50;;;;;;;10.35;94.52;98624.29;178976;1253;60242;-85
2023/12/11 13:08:57;;;;;;;4.60;3.30;;;;;;;10.17;97.86;98631.10;179022;1256;46129;-86
2023/12/11 13:13:09;;;;;;;14.70;3.50;;;;;;;10.03;99.94;98638.45;180662;1254;46110;-88
2023/12/11 13:17:13;;;;;;;4.80;2.00;;;;;;;9.87;100.00;98641.76;179899;1256;46167;-87
2023/12/11 13:21:17;;;;;;;9.30;2.10;;;;;;;9.72;100.00;98641.68;178978;1256;46490;-86
2023/12/11 13:25:22;;;;;;;3.70;1.30;;;;;;;9.64;100.00;98624.48;179054;1253;60252;-87
2023/12/11 13:29:26;;;;;;;3.90;1.80;;;;;;;9.66;100.00;98620.33;179753;1256;44364;-87
2023/12/11 13:33:30;;;;;;;6.90;2.60;;;;;;;9.69;100.00;98618.12;178995;1254;45973;-86
2023/12/11 13:37:33;;;;;;;11.00;1.60;;;;;;;9.69;100.00;98609.21;179124;1255;46040;-85
2023/12/11 13:41:38;;;;;;;5.80;2.30;;;;;;;9.70;100.00;98602.05;178443;1256;46148;-86
2023/12/11 13:45:42;;;;;;;4.10;2.40;;;;;;;9.71;100.00;98595.18;178315;1257;59615;-86
2023/12/11 13:49:45;;;;;;;8.50;2.30;;;;;;;9.71;100.00;98596.05;178818;1254;46026;-86
2023/12/11 13:53:49;;;;;;;4.80;2.20;;;;;;;9.68;100.00;98595.58;178749;1257;44835;-86
2023/12/11 13:57:53;;;;;;;2.80;1.60;;;;;;;9.64;100.00;98597.05;179432;1253;46006;-87
2023/12/11 14:01:57;;;;;;;6.70;3.70;;;;;;;9.57;100.00;98597.33;178575;1253;46523;-87
2023/12/11 14:06:02;;;;;;;10.30;5.40;;;;;;;9.54;100.00;98604.95;178710;1254;58214;-86
2023/12/11 14:10:09;;;;;;;7.50;4.30;;;;;;;9.48;100.00;98600.66;178699;1253;46211;-86
2023/12/11 14:14:14;;;;;;;5.50;4.10;;;;;;;9.42;100.00;98601.06;179245;1254;45991;-87
2023/12/11 14:18:18;;;;;;;4.10;2.70;;;;;;;9.32;100.00;98604.04;180450;1256;46494;-84
2023/12/11 14:22:21;;;;;;;3.90;2.50;;;;;;;9.26;100.00;98606.44;181212;1252;45943;-85
2023/12/11 14:26:25;;;;;;;3.30;2.40;;;;;;;9.21;100.00;98603.26;179584;1254;58702;-87
2023/12/11 14:30:28;;;;;;;5.70;3.10;;;;;;;9.17;100.00;98595.81;178961;1254;45973;-86
2023/12/11 14:34:31;;;;;;;3.90;2.90;;;;;;;9.15;100.00;98605.78;178552;1256;46004;-85
2023/12/11 14:38:35;;;;;;;4.60;3.20;;;;;;;9.23;100.00;98613.24;178826;1254;46087;-84
2023/12/11 14:42:42;;;;;;;7.50;3.90;;;;;;;9.19;100.00;98611.71;180382;1254;44135;-86
2023/12/11 14:46:45;;;;;;;4.90;4.50;;;;;;;9.26;100.00;98606.08;179757;1257;58530;-89
2023/12/11 14:50:48;;;;;;;4.80;3.60;;;;;;;9.26;100.00;98611.02;179961;1254;46078;-86
2023/12/11 14:54:52;;;;;;;3.90;2.40;;;;;;;9.22;100.00;98613.73;179462;1254;44830;-88
2023/12/11 14:58:55;;;;;;;3.10;2.20;;;;;;;9.22;100.00;98614.84;179192;1254;45942;-88
2023/12/11 15:02:59;;;;;;;4.80;3.30;;;;;;;9.18;100.00;98614.85;179542;1257;45919;-87
2023/12/11 15:07:04;;;;;;;3.80;2.80;;;;;;;9.13;100.00;98613.42;181739;1254;59180;-83
2023/12/11 15:11:08;;;;;;;4.10;3.50;;;;;;;9.02;100.00;98612.18;180811;1259;50136;-86
2023/12/11 15:15:15;;;;;;;2.00;1.40;;;;;;;8.96;100.00;98610.98;180163;1256;46064;-88
2023/12/11 15:19:18;;;;;;;4.80;2.60;;;;;;;8.92;100.00;98602.64;180094;1254;45211;-86
2023/12/11 15:23:22;;;;;;;4.30;2.40;;;;;;;8.86;100.00;98607.62;180426;1256;45942;-87
2023/12/11 15:27:25;;;;;;;3.40;2.40;;;;;;;8.83;100.00;98604.27;180755;1254;59575;-86
2023/12/11 15:31:29;;;;;;;3.70;2.50;;;;;;;8.80;100.00;98600.50;180721;1256;46096;-83
2023/12/11 15:35:32;;;;;;;4.70;2.50;;;;;;;8.78;100.00;98597.54;180749;1256;44721;-87
2023/12/11 15:39:36;;;;;;;4.30;2.80;;;;;;;8.79;100.00;98599.17;180385;1259;46056;-86
2023/12/11 15:43:45;;;;;;;3.80;2.90;;;;;;;8.78;100.00;98603.28;180907;1254;45972;-87
2023/12/11 15:47:49;;;;;;;3.30;2.50;;;;;;;8.75;100.00;98603.29;180333;1256;57933;-87
2023/12/11 15:52:09;;;;;;;6.90;3.00;;;;;;;8.76;100.00;98605.66;180600;1254;45374;-87
2023/12/11 15:56:15;;;;;;;3.80;2.20;;;;;;;8.71;100.00;98611.25;180731;1259;45937;-86
2023/12/11 16:00:20;;;;;;;6.50;2.90;;;;;;;8.71;100.00;98611.26;180450;1254;45158;-89
2023/12/11 16:04:24;;;;;;;7.00;3.70;;;;;;;8.72;100.00;98618.41;180752;1258;44720;-88
2023/12/11 16:08:28;;;;;;;4.20;3.20;;;;;;;8.71;100.00;98622.74;180776;1254;59203;-89
2023/12/11 16:12:32;;;;;;;6.30;2.60;;;;;;;8.74;100.00;98620.13;180797;1253;44832;-87
2023/12/11 16:16:36;;;;;;;4.00;2.20;;;;;;;8.76;100.00;98622.62;180688;1258;46086;-88
2023/12/11 16:20:57;;;;;;;3.90;3.50;;;;;;;8.76;100.00;98617.69;179945;1259;46030;-88
2023/12/11 16:25:01;;;;;;;6.30;2.80;;;;;;;8.74;100.00;98615.55;181136;1257;46050;-85
2023/12/11 16:29:04;;;;;;;6.50;3.80;;;;;;;8.74;100.00;98618.92;180865;1254;58701;-84
2023/12/11 16:33:08;;;;;;;4.10;2.80;;;;;;;8.72;100.00;98621.04;179226;1254;48943;-87
2023/12/11 16:37:11;;;;;;;5.10;3.50;;;;;;;8.67;100.00;98613.45;179985;1257;44070;-85
2023/12/11 16:41:25;;;;;;;10.30;5.90;;;;;;;8.63;100.00;98604.20;181233;1258;44042;-86
2023/12/11 16:45:30;;;;;;;17.30;9.10;;;;;;;8.61;100.00;98603.66;180342;1253;44229;-87
2023/12/11 16:49:33;;;;;;;19.40;13.00;;;;;;;8.56;100.00;98595.27;178643;1259;59996;-85
2023/12/11 16:53:53;;;;;;;18.80;12.20;;;;;;;8.49;100.00;98588.88;178460;1254;45990;-86
2023/12/11 16:57:56;;;;;;;13.40;8.70;;;;;;;8.46;100.00;98583.66;179917;1254;45949;-83
2023/12/11 17:02:00;;;;;;;14.70;10.00;;;;;;;8.43;100.00;98578.31;179324;1259;45955;-82
2023/12/11 17:06:04;;;;;;;19.20;12.10;;;;;;;8.42;100.00;98572.02;180807;1254;43732;-87
2023/12/11 17:10:07;;;;;;;23.90;16.20;;;;;;;8.40;100.00;98565.81;179671;1254;58312;-85
2023/12/11 17:14:11;;;;;;;20.20;11.60;;;;;;;8.37;100.00;98555.40;180681;1254;45990;-86
2023/12/11 17:18:14;;;;;;;19.00;12.00;;;;;;;8.33;100.00;98547.17;179976;1259;44826;-86
2023/12/11 17:22:18;;;;;;;18.90;12.80;;;;;;;8.35;100.00;98541.96;178973;1256;45895;-88
2023/12/11 17:26:21;;;;;;;14.90;9.80;;;;;;;8.33;100.00;98539.17;181032;1254;46036;-81
2023/12/11 17:30:25;;;;;;;11.70;8.60;;;;;;;8.38;100.00;98539.04;181180;1254;58087;-86
2023/12/11 17:34:28;;;;;;;11.20;8.00;;;;;;;8.36;100.00;98541.55;180355;1254;54166;-88
2023/12/11 17:38:31;;;;;;;9.40;7.30;;;;;;;8.36;100.00;98540.09;180294;1258;44363;-88
2023/12/11 17:42:35;;;;;;;14.70;7.80;;;;;;;8.38;100.00;98542.77;180178;1254;46114;-82
2023/12/11 17:46:38;;;;;;;10.50;6.70;;;;;;;8.37;100.00;98535.96;179720;1254;45967;-84
2023/12/11 17:50:41;;;;;;;8.60;5.10;;;;;;;8.37;100.00;98529.66;180221;1254;59448;-89
2023/12/11 17:54:48;;;;;;;7.00;4.80;;;;;;;8.35;100.00;98527.13;180425;1254;44225;-86
2023/12/11 17:58:52;;;;;;;7.00;4.50;;;;;;;8.35;100.00;98526.77;178995;1254;45896;-87
2023/12/11 18:02:56;;;;;;;5.40;3.60;;;;;;;8.33;100.00;98531.56;179729;1254;46046;-85
2023/12/11 18:06:59;;;;;;;4.50;3.20;;;;;;;8.34;100.00;98532.59;179295;1254;44083;-86
2023/12/11 18:11:02;;;;;;;5.10;3.60;;;;;;;8.35;100.00;98539.48;179615;1256;59325;-83
2023/12/11 18:15:06;;;;;;;5.30;4.10;;;;;;;8.36;100.00;98539.26;178756;1255;46038;-85
2023/12/11 18:19:10;;;;;;;6.30;4.00;;;;;;;8.37;100.00;98550.30;180256;1254;44093;-86
2023/12/11 18:23:13;;;;;;;9.40;3.40;;;;;;;8.46;100.00;98556.99;180403;1257;46233;-86
2023/12/11 18:27:17;;;;;;;3.90;1.90;;;;;;;8.62;100.00;98559.34;179194;1255;44017;-87
2023/12/11 18:31:21;;;;;;;3.70;1.90;;;;;;;8.84;100.00;98559.94;179330;1254;58538;-85
2023/12/11 18:35:24;;;;;;;5.20;2.30;;;;;;;9.08;100.00;98563.87;179834;1254;45974;-86
2023/12/11 18:39:28;;;;;;;2.60;2.00;;;;;;;9.22;100.00;98568.21;179624;1259;44159;-87
2023/12/11 18:43:31;;;;;;;2.30;2.10;;;;;;;9.28;100.00;98559.52;179239;1254;46256;-83
2023/12/11 18:47:34;;;;;;;2.50;1.70;;;;;;;9.29;100.00;98566.09;179385;1256;43990;-87
2023/12/11 18:51:40;;;;;;;4.00;1.00;;;;;;;9.32;100.00;98566.73;179235;1254;58328;-85
2023/12/11 18:55:43;;;;;;;2.40;1.80;;;;;;;9.36;100.00;98569.79;179603;1254;45995;-84